sensor_id;sensor_type;location;lat;lon;timestamp;P1;durP1;ratioP1;P2;durP2;ratioP2
48596;SDS011;34382;43.160;24.148;2023-06-14T11:49:07;10.85;;;5.13;;
48596;SDS011;34382;43.160;24.148;2023-06-14T11:50:41;9.52;;;5.20;;
48596;SDS011;34382;43.160;24.148;2023-06-14T11:52:13;9.07;;;4.70;;
48596;SDS011;34382;43.160;24.148;2023-06-14T11:53:46;8.07;;;4.72;;
48596;SDS011;34382;43.160;24.148;2023-06-14T11:55:18;11.05;;;5.03;;
48596;SDS011;34382;43.160;24.148;2023-06-14T11:56:51;9.43;;;4.93;;
48596;SDS011;34382;43.160;24.148;2023-06-14T11:58:23;9.33;;;4.90;;
48596;SDS011;34382;43.160;24.148;2023-06-14T11:59:55;8.93;;;4.70;;
48596;SDS011;34382;43.160;24.148;2023-06-14T12:01:29;9.23;;;4.78;;
48596;SDS011;34382;43.160;24.148;2023-06-14T12:03:05;11.23;;;5.28;;
48596;SDS011;34382;43.160;24.148;2023-06-14T12:19:01;12.75;;;4.70;;
48596;SDS011;34382;43.160;24.148;2023-06-14T12:20:41;9.95;;;5.20;;
48596;SDS011;34382;43.160;24.148;2023-06-14T12:22:14;11.05;;;5.30;;
48596;SDS011;34382;43.160;24.148;2023-06-14T12:23:48;9.13;;;5.32;;
48596;SDS011;34382;43.160;24.148;2023-06-14T12:25:55;8.48;;;4.90;;
48596;SDS011;34382;43.160;24.148;2023-06-14T12:27:21;9.50;;;4.97;;
48596;SDS011;34382;43.160;24.148;2023-06-14T12:28:55;9.38;;;4.65;;
48596;SDS011;34382;43.160;24.148;2023-06-14T12:30:28;8.88;;;4.75;;
48596;SDS011;34382;43.160;24.148;2023-06-14T12:32:01;10.98;;;4.20;;
48596;SDS011;34382;43.160;24.148;2023-06-14T12:49:09;8.18;;;4.45;;
48596;SDS011;34382;43.160;24.148;2023-06-14T12:50:43;9.43;;;5.05;;
48596;SDS011;34382;43.160;24.148;2023-06-14T12:52:15;8.48;;;4.95;;
48596;SDS011;34382;43.160;24.148;2023-06-14T12:53:47;10.00;;;4.47;;
48596;SDS011;34382;43.160;24.148;2023-06-14T12:56:52;8.52;;;5.35;;
48596;SDS011;34382;43.160;24.148;2023-06-14T12:58:26;9.10;;;4.63;;
48596;SDS011;34382;43.160;24.148;2023-06-14T12:59:59;11.50;;;5.57;;
48596;SDS011;34382;43.160;24.148;2023-06-14T13:03:04;8.63;;;5.13;;
48596;SDS011;34382;43.160;24.148;2023-06-14T13:18:38;9.15;;;4.72;;
48596;SDS011;34382;43.160;24.148;2023-06-14T13:20:10;9.10;;;4.57;;
48596;SDS011;34382;43.160;24.148;2023-06-14T13:21:43;10.75;;;5.45;;
48596;SDS011;34382;43.160;24.148;2023-06-14T13:23:15;9.50;;;5.18;;
48596;SDS011;34382;43.160;24.148;2023-06-14T13:24:48;9.45;;;5.30;;
48596;SDS011;34382;43.160;24.148;2023-06-14T13:26:20;9.37;;;4.90;;
48596;SDS011;34382;43.160;24.148;2023-06-14T13:27:52;9.03;;;5.20;;
48596;SDS011;34382;43.160;24.148;2023-06-14T13:29:24;8.93;;;4.90;;
48596;SDS011;34382;43.160;24.148;2023-06-14T13:32:30;9.15;;;5.40;;
48596;SDS011;34382;43.160;24.148;2023-06-14T13:34:02;8.82;;;5.32;;
48596;SDS011;34382;43.160;24.148;2023-06-14T13:37:15;8.25;;;4.70;;
48596;SDS011;34382;43.160;24.148;2023-06-14T13:38:48;9.23;;;4.70;;
48596;SDS011;34382;43.160;24.148;2023-06-14T13:40:20;9.38;;;5.45;;
48596;SDS011;34382;43.160;24.148;2023-06-14T13:41:52;9.43;;;5.20;;
48596;SDS011;34382;43.160;24.148;2023-06-14T13:43:25;9.83;;;4.90;;
48596;SDS011;34382;43.160;24.148;2023-06-14T13:44:57;10.37;;;5.00;;
48596;SDS011;34382;43.160;24.148;2023-06-14T13:46:30;9.95;;;5.35;;
48596;SDS011;34382;43.160;24.148;2023-06-14T13:48:03;9.48;;;5.00;;
48596;SDS011;34382;43.160;24.148;2023-06-14T13:49:35;8.82;;;4.75;;
48596;SDS011;34382;43.160;24.148;2023-06-14T13:51:08;9.98;;;5.07;;
48596;SDS011;34382;43.160;24.148;2023-06-14T13:52:40;9.77;;;4.67;;
48596;SDS011;34382;43.160;24.148;2023-06-14T13:54:13;9.15;;;5.18;;
48596;SDS011;34382;43.160;24.148;2023-06-14T13:55:48;8.50;;;4.75;;
48596;SDS011;34382;43.160;24.148;2023-06-14T13:57:20;8.45;;;4.72;;
48596;SDS011;34382;43.160;24.148;2023-06-14T13:58:53;8.48;;;5.22;;
48596;SDS011;34382;43.160;24.148;2023-06-14T14:00:25;10.13;;;5.20;;
48596;SDS011;34382;43.160;24.148;2023-06-14T14:01:57;8.93;;;5.25;;
48596;SDS011;34382;43.160;24.148;2023-06-14T14:05:11;10.10;;;4.80;;
48596;SDS011;34382;43.160;24.148;2023-06-14T14:11:36;9.45;;;4.90;;
48596;SDS011;34382;43.160;24.148;2023-06-14T14:14:42;9.00;;;4.60;;
48596;SDS011;34382;43.160;24.148;2023-06-14T14:16:14;9.10;;;4.90;;
48596;SDS011;34382;43.160;24.148;2023-06-14T14:17:47;10.25;;;5.10;;
48596;SDS011;34382;43.160;24.148;2023-06-14T14:19:23;9.35;;;5.40;;
48596;SDS011;34382;43.160;24.148;2023-06-14T14:20:56;10.05;;;5.43;;
48596;SDS011;34382;43.160;24.148;2023-06-14T14:22:28;9.77;;;5.72;;
48596;SDS011;34382;43.160;24.148;2023-06-14T14:32:37;9.85;;;5.65;;
48596;SDS011;34382;43.160;24.148;2023-06-14T14:34:09;8.77;;;5.13;;
48596;SDS011;34382;43.160;24.148;2023-06-14T14:35:42;8.93;;;5.10;;
48596;SDS011;34382;43.160;24.148;2023-06-14T14:37:17;8.00;;;4.50;;
48596;SDS011;34382;43.160;24.148;2023-06-14T14:38:50;9.73;;;5.45;;
48596;SDS011;34382;43.160;24.148;2023-06-14T14:40:23;10.07;;;5.10;;
48596;SDS011;34382;43.160;24.148;2023-06-14T14:41:55;9.40;;;5.17;;
48596;SDS011;34382;43.160;24.148;2023-06-14T14:43:28;8.90;;;5.13;;
48596;SDS011;34382;43.160;24.148;2023-06-14T14:45:02;9.55;;;5.32;;
48596;SDS011;34382;43.160;24.148;2023-06-14T14:46:35;9.75;;;5.50;;
48596;SDS011;34382;43.160;24.148;2023-06-14T15:03:56;8.57;;;4.78;;
48596;SDS011;34382;43.160;24.148;2023-06-14T15:05:30;9.27;;;5.15;;
48596;SDS011;34382;43.160;24.148;2023-06-14T15:07:03;9.02;;;5.00;;
48596;SDS011;34382;43.160;24.148;2023-06-14T15:08:35;11.60;;;5.57;;
48596;SDS011;34382;43.160;24.148;2023-06-14T15:10:07;8.40;;;4.80;;
48596;SDS011;34382;43.160;24.148;2023-06-14T15:11:40;9.38;;;5.22;;
48596;SDS011;34382;43.160;24.148;2023-06-14T15:13:12;9.40;;;5.20;;
48596;SDS011;34382;43.160;24.148;2023-06-14T15:14:45;9.73;;;5.43;;
48596;SDS011;34382;43.160;24.148;2023-06-14T15:16:17;9.63;;;5.30;;
48596;SDS011;34382;43.160;24.148;2023-06-14T15:17:49;10.03;;;5.87;;
48596;SDS011;34382;43.160;24.148;2023-06-14T16:15:41;15.35;;;5.63;;
48596;SDS011;34382;43.160;24.148;2023-06-14T16:34:16;9.85;;;5.50;;
48596;SDS011;34382;43.160;24.148;2023-06-14T16:35:48;9.20;;;5.37;;
48596;SDS011;34382;43.160;24.148;2023-06-14T16:37:21;10.15;;;5.63;;
48596;SDS011;34382;43.160;24.148;2023-06-14T16:38:53;9.70;;;5.63;;
48596;SDS011;34382;43.160;24.148;2023-06-14T16:40:26;13.90;;;6.18;;
48596;SDS011;34382;43.160;24.148;2023-06-14T16:41:58;9.87;;;5.43;;
48596;SDS011;34382;43.160;24.148;2023-06-14T16:43:30;9.40;;;5.53;;
48596;SDS011;34382;43.160;24.148;2023-06-14T16:45:03;10.55;;;5.90;;
48596;SDS011;34382;43.160;24.148;2023-06-14T16:46:35;8.80;;;5.40;;
48596;SDS011;34382;43.160;24.148;2023-06-14T16:48:09;10.63;;;5.35;;
48596;SDS011;34382;43.160;24.148;2023-06-14T16:49:41;9.77;;;5.22;;
48596;SDS011;34382;43.160;24.148;2023-06-14T16:51:13;9.73;;;5.33;;
48596;SDS011;34382;43.160;24.148;2023-06-14T16:52:46;9.88;;;5.38;;
48596;SDS011;34382;43.160;24.148;2023-06-14T16:54:18;10.00;;;5.43;;
48596;SDS011;34382;43.160;24.148;2023-06-14T16:55:51;13.03;;;5.33;;
48596;SDS011;34382;43.160;24.148;2023-06-14T16:57:23;10.77;;;5.43;;
48596;SDS011;34382;43.160;24.148;2023-06-14T16:58:55;10.82;;;5.88;;
48596;SDS011;34382;43.160;24.148;2023-06-14T17:00:28;8.80;;;5.30;;
48596;SDS011;34382;43.160;24.148;2023-06-14T17:02:01;12.87;;;5.80;;
48596;SDS011;34382;43.160;24.148;2023-06-14T17:03:36;9.02;;;5.28;;
48596;SDS011;34382;43.160;24.148;2023-06-14T17:05:09;11.20;;;5.53;;
48596;SDS011;34382;43.160;24.148;2023-06-14T17:06:41;11.60;;;4.82;;
48596;SDS011;34382;43.160;24.148;2023-06-14T17:08:14;9.40;;;5.60;;
48596;SDS011;34382;43.160;24.148;2023-06-14T17:09:46;10.02;;;5.65;;
48596;SDS011;34382;43.160;24.148;2023-06-14T17:11:18;11.45;;;5.30;;
48596;SDS011;34382;43.160;24.148;2023-06-14T17:12:54;10.80;;;6.10;;
48596;SDS011;34382;43.160;24.148;2023-06-14T17:14:26;10.18;;;5.63;;
48596;SDS011;34382;43.160;24.148;2023-06-14T17:16:01;11.05;;;5.45;;
48596;SDS011;34382;43.160;24.148;2023-06-14T17:17:34;12.30;;;5.72;;
48596;SDS011;34382;43.160;24.148;2023-06-14T17:19:06;9.20;;;5.40;;
48596;SDS011;34382;43.160;24.148;2023-06-14T17:20:39;10.38;;;5.57;;
48596;SDS011;34382;43.160;24.148;2023-06-14T17:22:11;10.90;;;5.97;;
48596;SDS011;34382;43.160;24.148;2023-06-14T17:23:43;10.23;;;5.68;;
48596;SDS011;34382;43.160;24.148;2023-06-14T17:25:16;9.95;;;5.80;;
48596;SDS011;34382;43.160;24.148;2023-06-14T17:26:48;12.47;;;5.87;;
48596;SDS011;34382;43.160;24.148;2023-06-14T17:28:20;9.75;;;5.78;;
48596;SDS011;34382;43.160;24.148;2023-06-14T17:29:53;11.87;;;6.67;;
48596;SDS011;34382;43.160;24.148;2023-06-14T17:31:25;12.02;;;5.88;;
48596;SDS011;34382;43.160;24.148;2023-06-14T17:32:58;10.70;;;5.50;;
48596;SDS011;34382;43.160;24.148;2023-06-14T17:34:30;10.57;;;5.75;;
48596;SDS011;34382;43.160;24.148;2023-06-14T17:36:03;11.38;;;6.63;;
48596;SDS011;34382;43.160;24.148;2023-06-14T17:37:36;11.50;;;6.05;;
48596;SDS011;34382;43.160;24.148;2023-06-14T17:39:09;10.38;;;6.03;;
48596;SDS011;34382;43.160;24.148;2023-06-14T17:40:41;12.20;;;6.28;;
48596;SDS011;34382;43.160;24.148;2023-06-14T17:42:21;11.00;;;5.63;;
48596;SDS011;34382;43.160;24.148;2023-06-14T17:43:56;12.02;;;6.60;;
48596;SDS011;34382;43.160;24.148;2023-06-14T17:45:29;10.60;;;6.25;;
48596;SDS011;34382;43.160;24.148;2023-06-14T17:47:01;10.43;;;6.50;;
48596;SDS011;34382;43.160;24.148;2023-06-14T17:48:34;10.77;;;6.50;;
48596;SDS011;34382;43.160;24.148;2023-06-14T17:50:06;11.35;;;6.60;;
48596;SDS011;34382;43.160;24.148;2023-06-14T17:51:39;11.15;;;6.20;;
48596;SDS011;34382;43.160;24.148;2023-06-14T17:53:11;10.33;;;5.40;;
48596;SDS011;34382;43.160;24.148;2023-06-14T17:54:44;9.98;;;5.38;;
48596;SDS011;34382;43.160;24.148;2023-06-14T17:56:16;10.88;;;5.55;;
48596;SDS011;34382;43.160;24.148;2023-06-14T17:57:49;9.55;;;4.97;;
48596;SDS011;34382;43.160;24.148;2023-06-14T18:00:54;9.00;;;4.90;;
48596;SDS011;34382;43.160;24.148;2023-06-14T18:02:27;8.65;;;4.75;;
48596;SDS011;34382;43.160;24.148;2023-06-14T18:03:59;9.70;;;4.68;;
48596;SDS011;34382;43.160;24.148;2023-06-14T18:05:34;11.05;;;4.90;;
48596;SDS011;34382;43.160;24.148;2023-06-14T18:08:41;8.63;;;4.40;;
48596;SDS011;34382;43.160;24.148;2023-06-14T18:11:49;8.45;;;3.80;;
48596;SDS011;34382;43.160;24.148;2023-06-14T18:13:21;7.82;;;3.88;;
48596;SDS011;34382;43.160;24.148;2023-06-14T18:14:53;8.40;;;3.67;;
48596;SDS011;34382;43.160;24.148;2023-06-14T18:16:25;7.85;;;3.65;;
48596;SDS011;34382;43.160;24.148;2023-06-14T18:17:58;7.05;;;3.30;;
48596;SDS011;34382;43.160;24.148;2023-06-14T18:19:30;8.47;;;3.60;;
48596;SDS011;34382;43.160;24.148;2023-06-14T18:21:03;8.07;;;4.05;;
48596;SDS011;34382;43.160;24.148;2023-06-14T18:24:08;7.80;;;3.60;;
48596;SDS011;34382;43.160;24.148;2023-06-14T18:25:42;7.25;;;3.50;;
48596;SDS011;34382;43.160;24.148;2023-06-14T18:27:14;7.47;;;3.23;;
48596;SDS011;34382;43.160;24.148;2023-06-14T18:28:46;9.45;;;3.30;;
48596;SDS011;34382;43.160;24.148;2023-06-14T18:30:19;6.78;;;3.42;;
48596;SDS011;34382;43.160;24.148;2023-06-14T18:31:52;9.02;;;3.30;;
48596;SDS011;34382;43.160;24.148;2023-06-14T18:33:24;8.20;;;3.53;;
48596;SDS011;34382;43.160;24.148;2023-06-14T18:34:57;6.57;;;3.22;;
48596;SDS011;34382;43.160;24.148;2023-06-14T18:36:29;9.57;;;3.70;;
48596;SDS011;34382;43.160;24.148;2023-06-14T18:38:02;8.50;;;3.75;;
48596;SDS011;34382;43.160;24.148;2023-06-14T18:39:34;7.47;;;3.47;;
48596;SDS011;34382;43.160;24.148;2023-06-14T18:41:06;7.90;;;3.47;;
48596;SDS011;34382;43.160;24.148;2023-06-14T18:42:39;9.75;;;3.65;;
48596;SDS011;34382;43.160;24.148;2023-06-14T18:44:11;7.88;;;3.20;;
48596;SDS011;34382;43.160;24.148;2023-06-14T18:45:43;6.95;;;3.25;;
48596;SDS011;34382;43.160;24.148;2023-06-14T18:47:16;6.40;;;2.97;;
48596;SDS011;34382;43.160;24.148;2023-06-14T18:48:48;8.80;;;3.30;;
48596;SDS011;34382;43.160;24.148;2023-06-14T18:50:21;6.00;;;2.78;;
48596;SDS011;34382;43.160;24.148;2023-06-14T18:51:53;5.60;;;2.63;;
48596;SDS011;34382;43.160;24.148;2023-06-14T18:53:26;7.35;;;2.95;;
48596;SDS011;34382;43.160;24.148;2023-06-14T18:54:58;7.25;;;2.90;;
48596;SDS011;34382;43.160;24.148;2023-06-14T18:56:33;6.13;;;2.90;;
48596;SDS011;34382;43.160;24.148;2023-06-14T18:58:09;6.43;;;3.00;;
48596;SDS011;34382;43.160;24.148;2023-06-14T18:59:42;6.80;;;3.15;;
48596;SDS011;34382;43.160;24.148;2023-06-14T19:01:14;7.03;;;3.13;;
48596;SDS011;34382;43.160;24.148;2023-06-14T19:02:46;6.33;;;3.07;;
48596;SDS011;34382;43.160;24.148;2023-06-14T19:04:19;7.10;;;3.38;;
48596;SDS011;34382;43.160;24.148;2023-06-14T19:05:51;6.63;;;3.00;;
48596;SDS011;34382;43.160;24.148;2023-06-14T19:07:27;7.70;;;3.13;;
48596;SDS011;34382;43.160;24.148;2023-06-14T19:08:59;6.73;;;3.03;;
48596;SDS011;34382;43.160;24.148;2023-06-14T19:10:31;7.80;;;3.20;;
48596;SDS011;34382;43.160;24.148;2023-06-14T19:12:04;6.30;;;2.85;;
48596;SDS011;34382;43.160;24.148;2023-06-14T19:13:40;7.30;;;3.05;;
48596;SDS011;34382;43.160;24.148;2023-06-14T19:15:12;8.45;;;2.80;;
48596;SDS011;34382;43.160;24.148;2023-06-14T19:16:45;7.57;;;2.78;;
48596;SDS011;34382;43.160;24.148;2023-06-14T19:18:18;5.43;;;2.67;;
48596;SDS011;34382;43.160;24.148;2023-06-14T19:19:54;7.05;;;3.05;;
48596;SDS011;34382;43.160;24.148;2023-06-14T19:21:26;7.30;;;3.17;;
48596;SDS011;34382;43.160;24.148;2023-06-14T19:22:59;6.85;;;3.20;;
48596;SDS011;34382;43.160;24.148;2023-06-14T19:24:32;9.18;;;3.10;;
48596;SDS011;34382;43.160;24.148;2023-06-14T19:26:04;8.52;;;3.10;;
48596;SDS011;34382;43.160;24.148;2023-06-14T19:27:37;6.88;;;2.70;;
48596;SDS011;34382;43.160;24.148;2023-06-14T19:29:09;6.88;;;2.92;;
48596;SDS011;34382;43.160;24.148;2023-06-14T19:30:41;6.95;;;2.67;;
48596;SDS011;34382;43.160;24.148;2023-06-14T19:32:14;7.50;;;2.90;;
48596;SDS011;34382;43.160;24.148;2023-06-14T19:33:46;6.57;;;2.67;;
48596;SDS011;34382;43.160;24.148;2023-06-14T19:35:19;7.87;;;3.10;;
48596;SDS011;34382;43.160;24.148;2023-06-14T19:36:53;6.85;;;2.85;;
48596;SDS011;34382;43.160;24.148;2023-06-14T19:38:25;8.90;;;3.08;;
48596;SDS011;34382;43.160;24.148;2023-06-14T19:41:31;8.35;;;2.72;;
48596;SDS011;34382;43.160;24.148;2023-06-14T19:43:03;8.10;;;2.75;;
48596;SDS011;34382;43.160;24.148;2023-06-14T19:44:36;11.02;;;3.30;;
48596;SDS011;34382;43.160;24.148;2023-06-14T19:46:08;7.70;;;3.15;;
48596;SDS011;34382;43.160;24.148;2023-06-14T19:47:40;7.78;;;3.10;;
48596;SDS011;34382;43.160;24.148;2023-06-14T19:49:16;8.02;;;2.97;;
48596;SDS011;34382;43.160;24.148;2023-06-14T19:50:48;7.68;;;3.15;;
48596;SDS011;34382;43.160;24.148;2023-06-14T19:52:22;6.70;;;3.08;;
48596;SDS011;34382;43.160;24.148;2023-06-14T19:53:55;6.72;;;2.90;;
48596;SDS011;34382;43.160;24.148;2023-06-14T19:55:27;7.07;;;2.75;;
48596;SDS011;34382;43.160;24.148;2023-06-14T19:57:00;7.65;;;2.83;;
48596;SDS011;34382;43.160;24.148;2023-06-14T19:58:33;8.63;;;3.33;;
48596;SDS011;34382;43.160;24.148;2023-06-14T20:00:05;7.78;;;3.30;;
48596;SDS011;34382;43.160;24.148;2023-06-14T20:01:39;8.40;;;3.45;;
48596;SDS011;34382;43.160;24.148;2023-06-14T20:03:12;7.15;;;3.10;;
48596;SDS011;34382;43.160;24.148;2023-06-14T20:04:44;8.55;;;3.40;;
48596;SDS011;34382;43.160;24.148;2023-06-14T20:06:17;7.78;;;3.42;;
48596;SDS011;34382;43.160;24.148;2023-06-14T20:07:49;6.93;;;3.13;;
48596;SDS011;34382;43.160;24.148;2023-06-14T20:09:23;7.28;;;3.38;;
48596;SDS011;34382;43.160;24.148;2023-06-14T20:10:57;7.43;;;3.40;;
48596;SDS011;34382;43.160;24.148;2023-06-14T20:12:30;10.05;;;3.50;;
48596;SDS011;34382;43.160;24.148;2023-06-14T20:14:02;9.10;;;3.72;;
48596;SDS011;34382;43.160;24.148;2023-06-14T20:15:36;7.55;;;3.50;;
48596;SDS011;34382;43.160;24.148;2023-06-14T20:17:08;7.47;;;3.88;;
48596;SDS011;34382;43.160;24.148;2023-06-14T20:18:41;11.10;;;3.90;;
48596;SDS011;34382;43.160;24.148;2023-06-14T20:20:14;8.07;;;3.65;;
48596;SDS011;34382;43.160;24.148;2023-06-14T20:21:46;8.27;;;3.75;;
48596;SDS011;34382;43.160;24.148;2023-06-14T20:23:22;11.20;;;3.20;;
48596;SDS011;34382;43.160;24.148;2023-06-14T20:24:54;7.35;;;3.25;;
48596;SDS011;34382;43.160;24.148;2023-06-14T20:26:26;7.18;;;3.50;;
48596;SDS011;34382;43.160;24.148;2023-06-14T20:27:59;10.73;;;3.78;;
48596;SDS011;34382;43.160;24.148;2023-06-14T20:29:31;10.53;;;3.90;;
48596;SDS011;34382;43.160;24.148;2023-06-14T20:31:05;6.95;;;3.30;;
48596;SDS011;34382;43.160;24.148;2023-06-14T20:32:37;10.00;;;3.70;;
48596;SDS011;34382;43.160;24.148;2023-06-14T20:34:10;7.33;;;3.33;;
48596;SDS011;34382;43.160;24.148;2023-06-14T20:44:13;9.65;;;3.80;;
48596;SDS011;34382;43.160;24.148;2023-06-14T20:45:48;9.02;;;3.90;;
48596;SDS011;34382;43.160;24.148;2023-06-14T20:47:21;7.90;;;3.65;;
48596;SDS011;34382;43.160;24.148;2023-06-14T20:48:54;8.95;;;3.70;;
48596;SDS011;34382;43.160;24.148;2023-06-14T20:50:27;8.35;;;3.67;;
48596;SDS011;34382;43.160;24.148;2023-06-14T20:51:59;7.78;;;3.55;;
48596;SDS011;34382;43.160;24.148;2023-06-14T20:53:32;7.55;;;3.45;;
48596;SDS011;34382;43.160;24.148;2023-06-14T20:55:04;7.90;;;3.40;;
48596;SDS011;34382;43.160;24.148;2023-06-14T20:56:37;11.90;;;3.70;;
48596;SDS011;34382;43.160;24.148;2023-06-14T20:58:09;8.45;;;3.55;;
48596;SDS011;34382;43.160;24.148;2023-06-14T20:59:41;8.63;;;3.80;;
48596;SDS011;34382;43.160;24.148;2023-06-14T21:01:13;8.85;;;3.80;;
48596;SDS011;34382;43.160;24.148;2023-06-14T21:02:46;12.55;;;3.78;;
48596;SDS011;34382;43.160;24.148;2023-06-14T21:04:18;8.10;;;3.60;;
48596;SDS011;34382;43.160;24.148;2023-06-14T21:08:35;12.48;;;3.22;;
48596;SDS011;34382;43.160;24.148;2023-06-14T21:10:08;9.18;;;3.42;;
48596;SDS011;34382;43.160;24.148;2023-06-14T21:11:41;8.32;;;3.63;;
48596;SDS011;34382;43.160;24.148;2023-06-14T21:13:13;8.57;;;3.65;;
48596;SDS011;34382;43.160;24.148;2023-06-14T21:14:45;7.55;;;3.75;;
48596;SDS011;34382;43.160;24.148;2023-06-14T21:16:17;9.30;;;3.65;;
48596;SDS011;34382;43.160;24.148;2023-06-14T21:17:50;9.57;;;3.90;;
48596;SDS011;34382;43.160;24.148;2023-06-14T21:19:27;10.48;;;3.85;;
48596;SDS011;34382;43.160;24.148;2023-06-14T21:20:59;10.73;;;4.18;;
48596;SDS011;34382;43.160;24.148;2023-06-14T21:28:00;8.63;;;4.05;;
48596;SDS011;34382;43.160;24.148;2023-06-14T21:43:17;13.32;;;4.47;;
48596;SDS011;34382;43.160;24.148;2023-06-14T21:44:49;8.48;;;4.20;;
48596;SDS011;34382;43.160;24.148;2023-06-14T21:46:23;11.18;;;4.50;;
48596;SDS011;34382;43.160;24.148;2023-06-14T21:47:55;10.37;;;4.30;;
48596;SDS011;34382;43.160;24.148;2023-06-14T21:49:28;9.82;;;4.78;;
48596;SDS011;34382;43.160;24.148;2023-06-14T21:51:00;8.93;;;4.07;;
48596;SDS011;34382;43.160;24.148;2023-06-14T21:52:32;11.32;;;4.60;;
48596;SDS011;34382;43.160;24.148;2023-06-14T21:54:04;9.38;;;3.97;;
48596;SDS011;34382;43.160;24.148;2023-06-14T21:55:36;8.98;;;4.10;;
48596;SDS011;34382;43.160;24.148;2023-06-14T21:58:41;8.32;;;4.00;;
48596;SDS011;34382;43.160;24.148;2023-06-14T22:00:14;8.85;;;4.28;;
48596;SDS011;34382;43.160;24.148;2023-06-14T22:01:47;9.15;;;3.95;;
48596;SDS011;34382;43.160;24.148;2023-06-14T22:03:20;10.18;;;4.15;;
48596;SDS011;34382;43.160;24.148;2023-06-14T22:04:52;11.25;;;4.78;;
48596;SDS011;34382;43.160;24.148;2023-06-14T22:06:24;10.98;;;4.38;;
48596;SDS011;34382;43.160;24.148;2023-06-14T22:07:56;9.32;;;4.32;;
48596;SDS011;34382;43.160;24.148;2023-06-14T22:09:29;10.27;;;4.73;;
48596;SDS011;34382;43.160;24.148;2023-06-14T22:12:41;10.07;;;4.13;;
48596;SDS011;34382;43.160;24.148;2023-06-14T22:14:13;10.98;;;4.10;;
48596;SDS011;34382;43.160;24.148;2023-06-14T22:15:47;8.25;;;3.97;;
48596;SDS011;34382;43.160;24.148;2023-06-14T22:17:19;10.77;;;4.50;;
48596;SDS011;34382;43.160;24.148;2023-06-14T22:18:54;9.90;;;4.68;;
48596;SDS011;34382;43.160;24.148;2023-06-14T22:20:29;11.30;;;4.35;;
48596;SDS011;34382;43.160;24.148;2023-06-14T22:22:04;15.10;;;4.60;;
48596;SDS011;34382;43.160;24.148;2023-06-14T22:23:37;9.25;;;4.03;;
48596;SDS011;34382;43.160;24.148;2023-06-14T22:25:09;14.32;;;4.57;;
48596;SDS011;34382;43.160;24.148;2023-06-14T22:26:42;9.37;;;4.53;;
48596;SDS011;34382;43.160;24.148;2023-06-14T22:28:20;10.05;;;4.53;;
48596;SDS011;34382;43.160;24.148;2023-06-14T22:29:55;11.25;;;4.72;;
48596;SDS011;34382;43.160;24.148;2023-06-14T22:31:32;11.52;;;4.65;;
48596;SDS011;34382;43.160;24.148;2023-06-14T22:33:08;13.85;;;5.10;;
48596;SDS011;34382;43.160;24.148;2023-06-14T22:34:41;11.90;;;4.38;;
48596;SDS011;34382;43.160;24.148;2023-06-14T22:36:13;10.00;;;4.73;;
48596;SDS011;34382;43.160;24.148;2023-06-14T22:37:47;10.57;;;4.65;;
48596;SDS011;34382;43.160;24.148;2023-06-14T22:39:20;10.98;;;5.03;;
48596;SDS011;34382;43.160;24.148;2023-06-14T22:40:53;14.30;;;5.07;;
48596;SDS011;34382;43.160;24.148;2023-06-14T22:42:25;11.87;;;5.23;;
48596;SDS011;34382;43.160;24.148;2023-06-14T22:43:58;13.88;;;5.03;;
48596;SDS011;34382;43.160;24.148;2023-06-14T22:45:30;13.88;;;4.82;;
48596;SDS011;34382;43.160;24.148;2023-06-14T22:47:04;10.80;;;4.78;;
48596;SDS011;34382;43.160;24.148;2023-06-14T22:48:40;12.02;;;4.82;;
48596;SDS011;34382;43.160;24.148;2023-06-14T22:50:22;10.50;;;5.30;;
48596;SDS011;34382;43.160;24.148;2023-06-14T22:51:54;10.25;;;4.90;;
48596;SDS011;34382;43.160;24.148;2023-06-14T22:53:27;13.63;;;4.88;;
48596;SDS011;34382;43.160;24.148;2023-06-14T22:55:00;10.98;;;4.65;;
48596;SDS011;34382;43.160;24.148;2023-06-14T22:56:33;10.77;;;5.18;;
48596;SDS011;34382;43.160;24.148;2023-06-14T22:58:05;12.40;;;5.03;;
48596;SDS011;34382;43.160;24.148;2023-06-14T22:59:38;9.37;;;4.73;;
48596;SDS011;34382;43.160;24.148;2023-06-14T23:01:11;10.18;;;4.95;;
48596;SDS011;34382;43.160;24.148;2023-06-14T23:02:47;9.80;;;4.47;;
48596;SDS011;34382;43.160;24.148;2023-06-14T23:04:19;12.05;;;4.82;;
48596;SDS011;34382;43.160;24.148;2023-06-14T23:05:54;9.52;;;4.78;;
48596;SDS011;34382;43.160;24.148;2023-06-14T23:07:30;10.23;;;4.30;;
48596;SDS011;34382;43.160;24.148;2023-06-14T23:09:03;11.18;;;4.30;;
48596;SDS011;34382;43.160;24.148;2023-06-14T23:10:36;10.95;;;4.57;;
48596;SDS011;34382;43.160;24.148;2023-06-14T23:12:09;12.38;;;4.72;;
48596;SDS011;34382;43.160;24.148;2023-06-14T23:13:42;12.65;;;4.07;;
48596;SDS011;34382;43.160;24.148;2023-06-14T23:15:22;12.55;;;4.93;;
48596;SDS011;34382;43.160;24.148;2023-06-14T23:16:55;11.55;;;4.70;;
48596;SDS011;34382;43.160;24.148;2023-06-14T23:18:27;14.77;;;4.88;;
48596;SDS011;34382;43.160;24.148;2023-06-14T23:21:39;10.20;;;4.45;;
48596;SDS011;34382;43.160;24.148;2023-06-14T23:23:11;8.85;;;4.35;;
48596;SDS011;34382;43.160;24.148;2023-06-14T23:24:46;9.57;;;4.22;;
48596;SDS011;34382;43.160;24.148;2023-06-14T23:26:18;10.02;;;5.10;;
48596;SDS011;34382;43.160;24.148;2023-06-14T23:27:56;10.48;;;4.28;;
48596;SDS011;34382;43.160;24.148;2023-06-14T23:29:28;13.00;;;4.70;;
48596;SDS011;34382;43.160;24.148;2023-06-14T23:31:01;10.27;;;4.30;;
48596;SDS011;34382;43.160;24.148;2023-06-14T23:32:34;10.00;;;4.30;;
48596;SDS011;34382;43.160;24.148;2023-06-14T23:34:06;11.00;;;4.55;;
48596;SDS011;34382;43.160;24.148;2023-06-14T23:35:39;10.87;;;4.40;;
48596;SDS011;34382;43.160;24.148;2023-06-14T23:37:12;16.13;;;4.25;;
48596;SDS011;34382;43.160;24.148;2023-06-14T23:38:44;10.40;;;3.90;;
48596;SDS011;34382;43.160;24.148;2023-06-14T23:40:20;14.93;;;4.25;;
48596;SDS011;34382;43.160;24.148;2023-06-14T23:41:52;10.57;;;4.22;;
48596;SDS011;34382;43.160;24.148;2023-06-14T23:43:25;13.32;;;5.30;;
48596;SDS011;34382;43.160;24.148;2023-06-14T23:44:59;11.60;;;4.47;;
48596;SDS011;34382;43.160;24.148;2023-06-14T23:46:33;12.02;;;4.78;;
48596;SDS011;34382;43.160;24.148;2023-06-14T23:48:05;12.57;;;4.60;;
48596;SDS011;34382;43.160;24.148;2023-06-14T23:49:37;12.60;;;4.72;;
48596;SDS011;34382;43.160;24.148;2023-06-14T23:51:09;15.25;;;4.60;;
48596;SDS011;34382;43.160;24.148;2023-06-14T23:52:42;12.15;;;4.60;;
48596;SDS011;34382;43.160;24.148;2023-06-14T23:54:17;12.27;;;4.13;;
48596;SDS011;34382;43.160;24.148;2023-06-14T23:55:50;12.40;;;4.38;;
48596;SDS011;34382;43.160;24.148;2023-06-14T23:57:24;12.10;;;4.25;;
48596;SDS011;34382;43.160;24.148;2023-06-14T23:58:56;11.88;;;4.30;;
